createdAt,value
2023-04-27T00:02:06.732Z,2.13
2023-04-27T00:04:38.258Z,2.07
2023-04-27T00:07:09.841Z,1.99
2023-04-27T00:09:41.153Z,1.92
2023-04-27T00:12:12.438Z,1.75
2023-04-27T00:14:44.844Z,1.81
2023-04-27T00:17:16.294Z,1.63
2023-04-27T00:19:48.429Z,1.68
2023-04-27T00:22:19.788Z,1.58
2023-04-27T00:24:51.056Z,1.61
2023-04-27T00:27:22.352Z,1.57
2023-04-27T00:29:53.631Z,1.45
2023-04-27T00:32:25.153Z,1.49
2023-04-27T00:34:56.425Z,1.45
2023-04-27T00:37:27.715Z,1.42
2023-04-27T00:39:58.984Z,1.29
2023-04-27T00:42:30.441Z,1.22
2023-04-27T00:45:01.945Z,1.14
2023-04-27T00:47:33.380Z,1.13
2023-04-27T00:50:08.452Z,1.23
2023-04-27T00:52:39.878Z,1.22
2023-04-27T00:55:11.679Z,1.17
2023-04-27T00:57:42.955Z,1.17
2023-04-27T01:00:14.481Z,1.12
2023-04-27T01:02:46.187Z,1.10
2023-04-27T01:05:18.050Z,1.08
2023-04-27T01:23:17.451Z,0.78
2023-04-27T01:25:49.053Z,0.61
2023-04-27T01:28:20.348Z,0.67
2023-04-27T01:30:51.828Z,0.71
2023-04-27T01:33:23.178Z,0.53
2023-04-27T01:35:55.029Z,0.56
2023-04-27T01:38:26.421Z,0.55
2023-04-27T01:41:01.894Z,0.44
2023-04-27T01:43:33.245Z,0.54
2023-04-27T01:46:11.569Z,0.59
2023-04-27T01:48:43.237Z,0.59
2023-04-27T01:51:15.086Z,0.38
2023-04-27T01:53:46.391Z,0.56
2023-04-27T01:56:17.659Z,0.55
2023-04-27T01:58:48.930Z,0.55
2023-04-27T02:01:20.804Z,0.41
2023-04-27T02:03:52.227Z,0.49
2023-04-27T02:06:23.662Z,0.50
2023-04-27T02:08:54.919Z,0.51
2023-04-27T02:11:27.524Z,0.39
2023-04-27T02:13:58.906Z,0.50
2023-04-27T02:16:30.632Z,0.40
2023-04-27T02:19:03.001Z,0.43
2023-04-27T02:21:34.327Z,0.40
2023-04-27T02:24:05.956Z,0.47
2023-04-27T02:26:37.247Z,0.23
2023-04-27T02:29:08.555Z,0.47
2023-04-27T02:31:40.794Z,0.46
2023-04-27T02:34:12.272Z,0.45
2023-04-27T02:36:43.526Z,0.45
2023-04-27T02:39:15.053Z,0.45
2023-04-27T02:41:46.644Z,0.45
2023-04-27T02:44:17.928Z,0.44
2023-04-27T02:46:50.626Z,0.23
2023-04-27T02:49:21.996Z,0.30
2023-04-27T02:51:53.263Z,0.44
2023-04-27T02:54:25.363Z,0.47
2023-04-27T02:56:56.647Z,0.26
2023-04-27T02:59:27.948Z,0.31
2023-04-27T03:01:59.332Z,0.28
2023-04-27T03:04:30.603Z,0.37
2023-04-27T03:07:03.487Z,0.22
2023-04-27T03:09:34.780Z,0.32
2023-04-27T03:12:06.161Z,0.33
2023-04-27T03:14:37.539Z,0.33
2023-04-27T03:17:08.847Z,0.50
2023-04-27T03:19:40.215Z,0.63
2023-04-27T03:22:11.498Z,0.69
2023-04-27T03:24:43.035Z,0.88
2023-04-27T03:27:14.372Z,0.95
2023-04-27T03:29:46.191Z,1.01
2023-04-27T03:32:17.454Z,0.97
2023-04-27T03:34:48.828Z,1.01
2023-04-27T03:37:20.114Z,0.93
2023-04-27T03:39:52.724Z,0.84
2023-04-27T03:42:24.084Z,1.00
2023-04-27T03:44:55.409Z,1.01
2023-04-27T03:47:26.707Z,0.98
2023-04-27T03:49:58.492Z,0.85
2023-04-27T03:52:29.815Z,0.97
2023-04-27T03:55:01.063Z,0.81
2023-04-27T03:57:32.334Z,0.84
2023-04-27T04:00:07.739Z,0.71
2023-04-27T04:02:39.345Z,0.71
2023-04-27T04:05:12.079Z,0.55
2023-04-27T04:07:43.739Z,0.45
2023-04-27T04:10:15.187Z,0.54
2023-04-27T04:12:46.512Z,0.63
2023-04-27T04:15:18.729Z,0.56
2023-04-27T04:17:50.109Z,0.64
2023-04-27T04:20:22.260Z,0.64
2023-04-27T04:22:53.516Z,0.63
2023-04-27T04:25:26.114Z,0.60
2023-04-27T04:27:57.950Z,0.54
2023-04-27T04:30:29.346Z,0.55
2023-04-27T04:33:00.642Z,0.60
2023-04-27T04:35:33.028Z,0.57
2023-04-27T04:38:04.386Z,0.50
2023-04-27T04:40:36.118Z,0.64
2023-04-27T04:43:07.656Z,0.59
2023-04-27T04:45:38.968Z,0.63
2023-04-27T04:48:10.321Z,0.65
2023-04-27T04:50:42.088Z,0.84
2023-04-27T04:53:13.410Z,0.79
2023-04-27T04:55:44.684Z,1.02
2023-04-27T04:58:16.164Z,1.12
2023-04-27T05:00:47.403Z,1.19
2023-04-27T05:03:18.845Z,1.29
2023-04-27T05:05:50.316Z,1.39
2023-04-27T05:08:21.586Z,1.37
2023-04-27T05:10:53.755Z,1.48
2023-04-27T05:13:25.033Z,1.74
2023-04-27T05:15:56.480Z,1.71
2023-04-27T05:18:27.828Z,1.98
2023-04-27T05:20:59.114Z,1.98
2023-04-27T05:23:30.546Z,2.17
2023-04-27T05:26:01.866Z,2.34
2023-04-27T05:28:33.268Z,2.46
2023-04-27T05:31:04.545Z,2.49
2023-04-27T05:33:35.955Z,2.71
2023-04-27T05:36:07.490Z,2.82
2023-04-27T05:38:40.318Z,2.94
2023-04-27T05:41:11.823Z,3.08
2023-04-27T05:43:43.097Z,3.21
2023-04-27T05:46:15.197Z,3.30
2023-04-27T05:48:46.586Z,3.52
2023-04-27T05:51:17.850Z,3.76
2023-04-27T05:53:49.294Z,4.01
2023-04-27T05:56:21.301Z,4.69
2023-04-27T05:58:52.929Z,5.34
2023-04-27T06:01:24.210Z,5.76
2023-04-27T06:03:55.961Z,6.01
2023-04-27T06:06:28.246Z,6.65
2023-04-27T06:08:59.785Z,7.32
2023-04-27T06:11:31.040Z,8.64
2023-04-27T06:14:02.319Z,9.01
2023-04-27T06:16:33.655Z,9.11
2023-04-27T06:19:05.003Z,8.93
2023-04-27T06:21:36.330Z,8.57
2023-04-27T06:24:07.676Z,8.47
2023-04-27T06:26:38.998Z,8.49
2023-04-27T06:29:10.335Z,8.49
2023-04-27T06:31:41.664Z,8.35
2023-04-27T06:34:13.016Z,8.36
2023-04-27T06:36:44.301Z,8.71
2023-04-27T06:39:15.974Z,8.93
2023-04-27T06:41:47.490Z,8.85
2023-04-27T06:44:19.005Z,8.62
2023-04-27T06:46:51.113Z,8.41
2023-04-27T06:49:22.390Z,8.19
2023-04-27T06:51:53.654Z,8.26
2023-04-27T06:54:24.926Z,8.29
2023-04-27T06:56:56.479Z,8.19
2023-04-27T06:59:27.883Z,8.36
2023-04-27T07:01:59.249Z,8.44
2023-04-27T07:04:30.729Z,8.81
2023-04-27T07:07:02.028Z,8.76
2023-04-27T07:09:33.557Z,9.01
2023-04-27T07:12:05.156Z,9.18
2023-04-27T07:14:36.434Z,9.26
2023-04-27T07:17:07.921Z,9.44
2023-04-27T07:19:39.210Z,9.59
2023-04-27T07:22:10.547Z,9.75
2023-04-27T07:24:41.853Z,9.91
2023-04-27T07:27:14.942Z,10.12
2023-04-27T07:29:46.251Z,10.34
2023-04-27T07:32:17.979Z,10.42
2023-04-27T07:34:54.185Z,10.35
2023-04-27T07:37:26.628Z,10.44
2023-04-27T07:39:59.808Z,10.58
2023-04-27T07:42:31.165Z,10.80
2023-04-27T07:45:02.431Z,10.99
2023-04-27T07:47:34.063Z,10.88
2023-04-27T07:50:08.746Z,10.65
2023-04-27T07:52:40.226Z,10.56
2023-04-27T07:55:11.694Z,10.96
2023-04-27T07:57:42.977Z,11.34
2023-04-27T08:00:14.457Z,11.35
2023-04-27T08:02:45.976Z,11.53
2023-04-27T08:05:18.187Z,11.29
2023-04-27T08:07:50.204Z,11.23
2023-04-27T08:10:22.111Z,11.10
2023-04-27T08:12:53.462Z,10.81
2023-04-27T08:15:24.782Z,10.60
2023-04-27T08:17:56.213Z,10.40
2023-04-27T08:20:27.571Z,10.49
2023-04-27T08:22:58.926Z,10.75
2023-04-27T08:25:30.226Z,11.05
2023-04-27T08:28:01.521Z,11.47
2023-04-27T08:30:32.839Z,11.84
2023-04-27T08:33:04.415Z,12.25
2023-04-27T08:35:36.005Z,12.54
2023-04-27T08:38:07.527Z,12.76
2023-04-27T08:40:45.011Z,12.61
2023-04-27T08:43:16.906Z,12.26
2023-04-27T08:45:50.284Z,12.15
2023-04-27T08:48:22.073Z,11.84
2023-04-27T08:50:53.858Z,11.37
2023-04-27T08:53:25.302Z,11.48
2023-04-27T08:55:57.736Z,11.52
2023-04-27T08:58:39.219Z,11.84
2023-04-27T09:01:10.751Z,12.05
2023-04-27T09:03:42.399Z,12.17
2023-04-27T09:06:15.123Z,12.41
2023-04-27T09:08:50.955Z,12.48
2023-04-27T09:11:36.387Z,12.37
2023-04-27T09:14:21.581Z,12.43
2023-04-27T09:16:57.979Z,12.91
2023-04-27T09:19:30.726Z,13.30
2023-04-27T09:22:14.706Z,13.46
2023-04-27T09:24:53.319Z,13.90
2023-04-27T09:27:24.701Z,13.76
2023-04-27T09:29:56.107Z,13.53
2023-04-27T09:32:27.442Z,13.27
2023-04-27T09:34:58.737Z,12.95
2023-04-27T09:37:30.669Z,13.26
2023-04-27T09:40:04.241Z,13.44
2023-04-27T09:42:35.931Z,13.69
2023-04-27T09:45:07.864Z,14.03
2023-04-27T09:47:40.416Z,14.09
2023-04-27T09:50:13.951Z,13.95
2023-04-27T09:52:46.159Z,13.44
2023-04-27T09:55:28.035Z,13.63
2023-04-27T09:58:41.053Z,13.13
2023-04-27T10:01:30.353Z,13.04
2023-04-27T10:04:38.740Z,13.32
2023-04-27T10:07:14.534Z,13.70
2023-04-27T10:09:48.138Z,14.25
2023-04-27T10:12:27.417Z,14.61
2023-04-27T10:15:11.032Z,14.61
2023-04-27T10:17:54.823Z,14.58
2023-04-27T10:20:33.087Z,14.17
2023-04-27T10:23:04.629Z,13.96
2023-04-27T10:25:40.869Z,14.08
2023-04-27T10:28:17.786Z,13.96
2023-04-27T10:30:49.584Z,14.06
2023-04-27T10:33:22.926Z,14.01
2023-04-27T10:35:57.085Z,14.03
2023-04-27T10:38:30.831Z,13.77
2023-04-27T10:41:05.283Z,13.85
2023-04-27T10:43:36.559Z,13.57
2023-04-27T10:46:16.786Z,13.29
2023-04-27T10:48:48.103Z,13.02
2023-04-27T10:51:19.368Z,12.93
2023-04-27T10:53:53.872Z,12.86
2023-04-27T10:56:26.571Z,12.90
2023-04-27T10:59:03.501Z,12.87
2023-04-27T11:01:36.043Z,13.14
2023-04-27T11:04:07.324Z,13.35
2023-04-27T11:06:43.976Z,13.19
2023-04-27T11:09:25.693Z,13.33
2023-04-27T11:11:57.090Z,13.43
2023-04-27T11:14:29.596Z,13.94
2023-04-27T11:17:00.896Z,14.79
2023-04-27T11:19:32.300Z,15.28
2023-04-27T11:22:04.817Z,15.76
2023-04-27T11:24:36.207Z,15.99
2023-04-27T11:27:07.492Z,15.81
2023-04-27T11:29:39.525Z,15.62
2023-04-27T11:32:23.769Z,15.71
2023-04-27T11:34:56.621Z,15.45
2023-04-27T11:37:29.654Z,15.54
2023-04-27T11:40:01.431Z,15.70
2023-04-27T11:42:32.795Z,15.37
2023-04-27T11:45:06.051Z,15.10
2023-04-27T11:47:37.950Z,14.61
2023-04-27T11:50:09.665Z,14.27
2023-04-27T11:52:41.124Z,14.13
2023-04-27T11:55:16.001Z,14.25
2023-04-27T11:57:47.694Z,14.45
2023-04-27T12:00:19.608Z,14.75
2023-04-27T12:02:51.092Z,15.21
2023-04-27T12:05:22.847Z,15.62
2023-04-27T12:07:54.187Z,15.56
2023-04-27T12:10:25.491Z,15.48
2023-04-27T12:12:56.877Z,15.24
2023-04-27T12:15:28.177Z,15.24
2023-04-27T12:17:59.703Z,15.11
2023-04-27T12:20:31.036Z,15.42
2023-04-27T12:23:02.352Z,15.59
2023-04-27T12:25:33.744Z,15.27
2023-04-27T12:28:05.016Z,15.00
2023-04-27T12:30:36.496Z,15.06
2023-04-27T12:33:11.005Z,15.02
2023-04-27T12:35:42.923Z,14.90
2023-04-27T12:38:14.363Z,14.91
2023-04-27T12:40:46.032Z,14.56
2023-04-27T12:43:17.305Z,14.31
2023-04-27T12:45:48.712Z,14.25
2023-04-27T12:48:20.105Z,14.16
2023-04-27T12:50:51.520Z,14.26
2023-04-27T12:53:23.931Z,14.59
2023-04-27T12:55:55.522Z,15.04
2023-04-27T12:58:26.882Z,15.65
2023-04-27T13:00:58.397Z,16.26
2023-04-27T13:03:31.043Z,16.47
2023-04-27T13:06:02.554Z,16.10
2023-04-27T13:08:34.899Z,15.83
2023-04-27T13:11:07.618Z,15.33
2023-04-27T13:13:38.912Z,14.97
2023-04-27T13:16:11.643Z,15.00
2023-04-27T13:18:49.287Z,15.11
2023-04-27T13:21:20.963Z,14.91
2023-04-27T13:23:54.764Z,14.63
2023-04-27T13:26:26.205Z,14.49
2023-04-27T13:28:58.053Z,14.37
2023-04-27T13:31:29.361Z,14.21
2023-04-27T13:34:01.234Z,14.11
2023-04-27T13:36:32.504Z,14.06
2023-04-27T13:39:04.881Z,14.15
2023-04-27T13:41:36.286Z,14.01
2023-04-27T13:44:07.564Z,13.79
2023-04-27T13:46:38.851Z,14.10
2023-04-27T13:49:10.879Z,14.37
2023-04-27T13:51:42.185Z,14.84
2023-04-27T13:54:13.771Z,14.84
2023-04-27T13:56:45.569Z,14.85
2023-04-27T13:59:17.178Z,14.93
2023-04-27T14:01:48.694Z,14.79
2023-04-27T14:04:20.114Z,14.66
2023-04-27T14:06:51.604Z,14.82
2023-04-27T14:09:24.141Z,14.92
2023-04-27T14:11:57.184Z,14.83
2023-04-27T14:14:29.239Z,14.92
2023-04-27T14:17:00.740Z,15.00
2023-04-27T14:19:32.524Z,14.73
2023-04-27T14:22:06.203Z,14.23
2023-04-27T14:24:37.540Z,13.91
2023-04-27T14:27:09.030Z,13.66
2023-04-27T14:29:40.314Z,13.48
2023-04-27T14:32:12.725Z,13.96
2023-04-27T14:34:44.351Z,14.29
2023-04-27T14:37:15.761Z,14.53
2023-04-27T14:39:47.315Z,14.58
2023-04-27T14:42:18.584Z,14.69
2023-04-27T14:44:49.909Z,14.45
2023-04-27T14:47:21.267Z,14.32
2023-04-27T14:49:52.621Z,14.03
2023-04-27T14:52:23.911Z,14.13
2023-04-27T14:54:55.469Z,14.38
2023-04-27T14:57:26.863Z,14.44
2023-04-27T14:59:59.010Z,14.56
2023-04-27T15:02:33.150Z,14.70
2023-04-27T15:05:05.850Z,14.73
2023-04-27T15:07:37.425Z,14.65
2023-04-27T15:10:09.254Z,14.50
2023-04-27T15:12:40.686Z,14.46
2023-04-27T15:15:12.924Z,14.58
2023-04-27T15:17:44.200Z,14.81
2023-04-27T15:20:15.661Z,14.75
2023-04-27T15:22:47.092Z,14.96
2023-04-27T15:25:18.575Z,15.17
2023-04-27T15:27:49.840Z,15.40
2023-04-27T15:30:21.161Z,15.39
2023-04-27T15:32:52.573Z,15.21
2023-04-27T15:35:23.914Z,14.84
2023-04-27T15:37:55.348Z,14.66
2023-04-27T15:40:26.649Z,14.57
2023-04-27T15:42:57.913Z,14.66
2023-04-27T15:45:29.674Z,14.61
2023-04-27T15:48:01.316Z,14.55
2023-04-27T15:50:32.858Z,14.73
2023-04-27T15:53:04.141Z,14.58
2023-04-27T15:55:35.433Z,14.56
2023-04-27T15:58:06.740Z,14.31
2023-04-27T16:00:38.333Z,14.23
2023-04-27T16:03:11.336Z,14.10
2023-04-27T16:05:42.915Z,13.95
2023-04-27T16:08:14.181Z,13.90
2023-04-27T16:10:45.463Z,13.77
2023-04-27T16:13:16.821Z,13.82
2023-04-27T16:15:48.120Z,13.83
2023-04-27T16:18:19.457Z,13.71
2023-04-27T16:20:50.788Z,13.66
2023-04-27T16:23:22.763Z,13.58
2023-04-27T16:25:54.089Z,13.49
2023-04-27T16:28:25.511Z,13.31
2023-04-27T16:30:56.842Z,13.34
2023-04-27T16:33:28.247Z,13.22
2023-04-27T16:35:59.508Z,13.21
2023-04-27T16:38:30.944Z,13.20
2023-04-27T16:41:02.371Z,13.16
2023-04-27T16:43:33.868Z,13.01
2023-04-27T16:46:06.202Z,12.82
2023-04-27T16:48:37.580Z,12.80
2023-04-27T16:51:10.581Z,12.65
2023-04-27T16:53:41.971Z,12.48
2023-04-27T16:56:14.060Z,12.40
2023-04-27T16:58:45.318Z,12.45
2023-04-27T17:01:16.595Z,12.39
2023-04-27T17:03:48.110Z,12.22
2023-04-27T17:06:19.507Z,12.15
2023-04-27T17:08:51.708Z,12.21
2023-04-27T17:11:23.595Z,12.19
2023-04-27T17:13:55.016Z,12.07
2023-04-27T17:16:26.994Z,11.78
2023-04-27T17:18:58.520Z,11.77
2023-04-27T17:21:29.798Z,11.65
2023-04-27T17:24:01.149Z,11.57
2023-04-27T17:26:32.706Z,11.51
2023-04-27T17:29:03.988Z,11.41
2023-04-27T17:31:35.292Z,11.47
2023-04-27T17:34:06.743Z,11.41
2023-04-27T17:36:38.097Z,11.35
2023-04-27T17:39:09.369Z,11.27
2023-04-27T17:41:40.895Z,11.01
2023-04-27T17:44:12.694Z,11.05
2023-04-27T17:46:48.637Z,11.08
2023-04-27T17:49:20.334Z,11.06
2023-04-27T17:51:51.674Z,10.88
2023-04-27T17:54:23.021Z,10.86
2023-04-27T17:56:54.389Z,10.74
2023-04-27T17:59:25.922Z,10.64
2023-04-27T18:01:57.561Z,10.52
2023-04-27T18:04:29.076Z,10.45
2023-04-27T18:07:00.609Z,10.22
2023-04-27T18:09:32.962Z,10.22
2023-04-27T18:12:10.590Z,10.16
2023-04-27T18:14:41.872Z,10.01
2023-04-27T18:17:13.157Z,9.77
2023-04-27T18:19:44.467Z,9.86
2023-04-27T18:22:16.000Z,9.72
2023-04-27T18:24:47.735Z,9.55
2023-04-27T18:27:19.048Z,9.69
2023-04-27T18:29:51.887Z,9.63
2023-04-27T18:32:23.210Z,9.56
2023-04-27T18:34:56.332Z,9.46
2023-04-27T18:37:27.742Z,9.40
2023-04-27T18:39:59.008Z,9.35
2023-04-27T18:42:30.354Z,9.27
2023-04-27T18:45:01.819Z,9.18
2023-04-27T18:47:33.134Z,9.12
2023-04-27T18:50:05.149Z,8.77
2023-04-27T18:52:36.646Z,8.85
2023-04-27T18:55:08.916Z,8.94
2023-04-27T18:57:40.171Z,8.89
2023-04-27T19:00:12.925Z,8.76
2023-04-27T19:02:44.314Z,8.72
2023-04-27T19:05:15.974Z,8.76
2023-04-27T19:07:47.305Z,8.63
2023-04-27T19:10:18.726Z,8.69
2023-04-27T19:12:50.031Z,8.65
2023-04-27T19:15:23.667Z,8.61
2023-04-27T19:18:03.034Z,8.51
2023-04-27T19:20:41.934Z,8.52
2023-04-27T19:23:13.574Z,8.39
2023-04-27T19:25:48.075Z,8.30
2023-04-27T19:28:19.849Z,8.23
2023-04-27T19:30:51.323Z,8.33
2023-04-27T19:33:22.671Z,8.26
2023-04-27T19:35:54.240Z,8.13
2023-04-27T19:38:25.634Z,8.09
2023-04-27T19:40:57.043Z,8.18
2023-04-27T19:43:28.990Z,8.06
2023-04-27T19:46:03.622Z,8.02
2023-04-27T19:48:34.967Z,7.95
2023-04-27T19:51:10.303Z,7.94
2023-04-27T19:53:41.633Z,7.93
2023-04-27T19:56:12.894Z,7.81
2023-04-27T19:58:44.169Z,7.91
2023-04-27T20:01:15.529Z,7.88
2023-04-27T20:03:46.957Z,7.84
2023-04-27T20:06:20.060Z,7.82
2023-04-27T20:08:51.423Z,7.79
2023-04-27T20:11:22.735Z,7.69
2023-04-27T20:13:54.122Z,7.73
2023-04-27T20:16:25.715Z,7.71
2023-04-27T20:18:57.102Z,7.68
2023-04-27T20:21:29.231Z,7.67
2023-04-27T20:24:00.524Z,7.50
2023-04-27T20:26:31.925Z,7.61
2023-04-27T20:29:03.197Z,7.59
2023-04-27T20:31:34.625Z,7.53
2023-04-27T20:34:06.140Z,7.43
2023-04-27T20:36:37.457Z,7.46
2023-04-27T20:39:10.284Z,7.47
2023-04-27T20:41:41.933Z,7.42
2023-04-27T20:44:13.660Z,7.38
2023-04-27T20:46:45.122Z,7.37
2023-04-27T20:49:24.700Z,7.25
2023-04-27T20:52:03.195Z,7.20
2023-04-27T20:54:34.566Z,7.29
2023-04-27T20:57:10.797Z,7.21
2023-04-27T20:59:41.995Z,7.26
2023-04-27T21:02:13.270Z,7.13
2023-04-27T21:04:44.743Z,7.19
2023-04-27T21:07:16.109Z,7.11
2023-04-27T21:09:47.426Z,7.15
2023-04-27T21:12:18.793Z,7.10
2023-04-27T21:14:50.278Z,7.08
2023-04-27T21:17:21.556Z,6.99
2023-04-27T21:19:53.047Z,7.02
2023-04-27T21:22:24.352Z,6.98
2023-04-27T21:24:55.649Z,6.92
2023-04-27T21:27:28.503Z,6.86
2023-04-27T21:30:00.051Z,6.69
2023-04-27T21:32:31.353Z,6.70
2023-04-27T21:35:02.814Z,6.73
2023-04-27T21:37:34.755Z,6.68
2023-04-27T21:40:06.880Z,6.64
2023-04-27T21:42:38.133Z,6.61
2023-04-27T21:45:09.965Z,6.55
2023-04-27T21:47:41.334Z,6.51
2023-04-27T21:50:13.125Z,6.48
2023-04-27T21:52:44.496Z,6.40
2023-04-27T21:55:15.850Z,6.43
2023-04-27T21:57:47.100Z,6.41
2023-04-27T22:00:18.922Z,6.40
2023-04-27T22:02:51.113Z,6.28
2023-04-27T22:05:22.637Z,6.35
2023-04-27T22:07:53.893Z,6.26
2023-04-27T22:10:25.348Z,6.33
2023-04-27T22:12:58.261Z,6.23
2023-04-27T22:15:29.703Z,6.20
2023-04-27T22:18:00.999Z,6.18
2023-04-27T22:20:33.273Z,6.17
2023-04-27T22:23:04.544Z,6.12
2023-04-27T22:25:36.403Z,6.05
2023-04-27T22:28:08.223Z,6.01
2023-04-27T22:30:42.506Z,5.96
2023-04-27T22:33:13.948Z,5.79
2023-04-27T22:35:45.404Z,5.83
2023-04-27T22:38:16.782Z,5.75
2023-04-27T22:40:48.050Z,5.71
2023-04-27T22:43:19.314Z,5.56
2023-04-27T22:45:50.939Z,5.61
2023-04-27T22:48:22.198Z,5.55
2023-04-27T22:50:53.600Z,5.35
2023-04-27T22:53:24.878Z,5.45
2023-04-27T22:55:56.303Z,5.44
2023-04-27T22:58:27.599Z,5.40
2023-04-27T23:00:59.007Z,5.36
2023-04-27T23:03:30.448Z,5.33
2023-04-27T23:06:01.995Z,5.16
2023-04-27T23:08:33.322Z,5.26
2023-04-27T23:11:04.587Z,5.26
2023-04-27T23:13:37.936Z,5.21
2023-04-27T23:16:09.933Z,5.00
2023-04-27T23:18:41.773Z,5.13
2023-04-27T23:21:13.108Z,5.09
2023-04-27T23:23:44.360Z,5.09
2023-04-27T23:26:16.280Z,5.07
2023-04-27T23:28:48.102Z,5.03
2023-04-27T23:31:19.363Z,4.88
2023-04-27T23:33:50.685Z,5.00
2023-04-27T23:36:22.000Z,4.76
2023-04-27T23:38:53.334Z,5.00
2023-04-27T23:41:24.593Z,5.00
2023-04-27T23:43:56.006Z,5.00
2023-04-27T23:46:27.289Z,4.97
2023-04-27T23:48:58.599Z,4.98
2023-04-27T23:51:29.884Z,4.93
2023-04-27T23:54:01.140Z,4.83
2023-04-27T23:56:32.406Z,4.95
2023-04-27T23:59:03.680Z,4.79
